createdAt,value
2022-10-23T00:00:53.429Z,12.90
2022-10-23T00:03:40.809Z,12.90
2022-10-23T00:06:10.953Z,12.88
2022-10-23T00:08:40.808Z,12.86
2022-10-23T00:11:19.676Z,12.85
2022-10-23T00:13:55.506Z,12.85
2022-10-23T00:16:28.941Z,12.86
2022-10-23T00:18:57.827Z,12.85
2022-10-23T00:21:27.432Z,12.85
2022-10-23T00:24:28.520Z,12.86
2022-10-23T00:27:03.712Z,12.84
2022-10-23T00:29:35.623Z,12.82
2022-10-23T00:32:03.780Z,12.83
2022-10-23T00:34:32.695Z,12.85
2022-10-23T00:37:02.649Z,12.86
2022-10-23T00:39:31.408Z,12.85
2022-10-23T00:42:00.381Z,12.87
2022-10-23T00:44:28.168Z,12.86
2022-10-23T00:47:02.718Z,12.84
2022-10-23T00:49:32.484Z,12.80
2022-10-23T00:52:07.444Z,12.82
2022-10-23T00:54:44.674Z,12.78
2022-10-23T00:57:17.796Z,12.73
2022-10-23T00:59:47.777Z,12.70
2022-10-23T01:02:16.666Z,12.68
2022-10-23T01:04:47.544Z,12.65
2022-10-23T01:07:26.257Z,12.65
2022-10-23T01:10:15.138Z,12.68
2022-10-23T01:12:49.624Z,12.72
2022-10-23T01:16:04.685Z,12.72
2022-10-23T01:18:45.773Z,12.76
2022-10-23T01:21:22.668Z,12.78
2022-10-23T01:24:24.982Z,12.80
2022-10-23T01:27:15.073Z,12.83
2022-10-23T01:29:55.768Z,12.85
2022-10-23T01:32:37.280Z,12.89
2022-10-23T01:35:14.456Z,12.95
2022-10-23T01:37:45.279Z,13.00
2022-10-23T01:40:27.460Z,13.01
2022-10-23T01:42:58.369Z,12.96
2022-10-23T01:45:39.235Z,12.92
2022-10-23T01:48:10.884Z,12.90
2022-10-23T01:50:42.777Z,12.88
2022-10-23T01:53:10.836Z,12.81
2022-10-23T01:55:45.035Z,12.75
2022-10-23T01:58:21.180Z,12.69
2022-10-23T02:00:55.712Z,12.64
2022-10-23T02:03:33.470Z,12.63
2022-10-23T02:06:05.794Z,12.63
2022-10-23T02:08:40.558Z,12.62
2022-10-23T02:11:13.135Z,12.58
2022-10-23T02:13:44.102Z,12.53
2022-10-23T02:16:42.896Z,12.43
2022-10-23T02:19:30.492Z,12.35
2022-10-23T02:22:23.175Z,12.31
2022-10-23T02:25:04.973Z,12.30
2022-10-23T02:27:45.325Z,12.29
2022-10-23T02:30:18.232Z,12.22
2022-10-23T02:32:54.151Z,12.19
2022-10-23T02:35:26.410Z,12.14
2022-10-23T02:38:03.600Z,12.05
2022-10-23T02:40:44.147Z,11.99
2022-10-23T02:43:24.323Z,11.94
2022-10-23T02:46:10.479Z,11.95
2022-10-23T02:48:54.930Z,12.00
2022-10-23T02:51:45.294Z,12.07
2022-10-23T02:54:26.059Z,12.14
2022-10-23T02:57:05.001Z,12.18
2022-10-23T02:59:45.461Z,12.22
2022-10-23T03:02:26.315Z,12.29
2022-10-23T03:05:03.286Z,12.32
2022-10-23T03:07:34.288Z,12.32
2022-10-23T03:10:07.270Z,12.30
2022-10-23T03:12:39.997Z,12.30
2022-10-23T03:15:10.986Z,12.30
2022-10-23T03:17:42.124Z,12.28
2022-10-23T03:20:11.977Z,12.28
2022-10-23T03:22:41.590Z,12.25
2022-10-23T03:25:11.874Z,12.21
2022-10-23T03:27:44.506Z,12.18
2022-10-23T03:30:13.944Z,12.18
2022-10-23T03:32:43.273Z,12.17
2022-10-23T03:35:12.400Z,12.14
2022-10-23T03:37:42.686Z,12.10
2022-10-23T03:40:11.344Z,12.05
2022-10-23T03:42:40.298Z,12.04
2022-10-23T03:45:15.927Z,12.05
2022-10-23T03:47:52.101Z,12.06
2022-10-23T03:50:21.137Z,12.08
2022-10-23T03:52:50.924Z,12.08
2022-10-23T03:55:18.843Z,12.06
2022-10-23T03:57:46.743Z,12.07
2022-10-23T04:00:17.005Z,12.10
2022-10-23T04:02:45.626Z,12.12
2022-10-23T04:05:15.163Z,12.16
2022-10-23T04:07:54.837Z,12.20
2022-10-23T04:10:26.562Z,12.25
2022-10-23T04:12:54.639Z,12.29
2022-10-23T04:15:26.681Z,12.33
2022-10-23T04:17:56.782Z,12.34
2022-10-23T04:20:30.637Z,12.33
2022-10-23T04:23:05.798Z,12.30
2022-10-23T04:25:36.264Z,12.22
2022-10-23T04:28:04.849Z,12.12
2022-10-23T04:30:41.985Z,12.05
2022-10-23T04:33:16.437Z,12.03
2022-10-23T04:35:45.513Z,12.01
2022-10-23T04:38:17.255Z,12.00
2022-10-23T04:40:45.253Z,12.00
2022-10-23T04:43:16.710Z,11.99
2022-10-23T04:45:45.839Z,11.97
2022-10-23T04:48:13.774Z,11.98
2022-10-23T04:51:14.994Z,11.99
2022-10-23T04:54:05.701Z,12.04
2022-10-23T04:57:06.782Z,12.15
2022-10-23T04:59:53.469Z,12.26
2022-10-23T05:02:23.639Z,12.31
2022-10-23T05:04:52.096Z,12.37
2022-10-23T05:07:36.302Z,12.40
2022-10-23T05:10:17.284Z,12.46
2022-10-23T05:13:08.112Z,12.55
2022-10-23T05:15:38.526Z,12.63
2022-10-23T05:18:17.498Z,12.71
2022-10-23T05:20:50.790Z,12.78
2022-10-23T05:23:22.094Z,12.85
2022-10-23T05:26:05.098Z,12.91
2022-10-23T05:28:37.882Z,12.97
2022-10-23T05:31:06.774Z,13.01
2022-10-23T05:33:41.131Z,13.04
2022-10-23T05:36:13.513Z,13.05
2022-10-23T05:38:46.200Z,13.04
2022-10-23T05:41:19.889Z,13.03
2022-10-23T05:43:48.750Z,12.98
2022-10-23T05:46:43.304Z,12.96
2022-10-23T05:49:32.425Z,12.92
2022-10-23T05:52:37.664Z,12.86
2022-10-23T05:55:07.050Z,12.84
2022-10-23T05:57:49.431Z,12.82
2022-10-23T06:00:24.615Z,12.82
2022-10-23T06:03:04.270Z,12.82
2022-10-23T06:05:36.850Z,12.76
2022-10-23T06:08:20.323Z,12.83
2022-10-23T06:10:55.659Z,12.82
2022-10-23T06:13:24.669Z,12.77
2022-10-23T06:15:54.693Z,12.70
2022-10-23T06:18:32.702Z,12.62
2022-10-23T06:21:07.504Z,12.57
2022-10-23T06:23:39.806Z,12.56
2022-10-23T06:26:14.331Z,12.52
2022-10-23T06:29:16.468Z,12.42
2022-10-23T06:31:45.936Z,12.35
2022-10-23T06:34:15.846Z,12.30
2022-10-23T06:36:45.000Z,12.31
2022-10-23T06:39:32.018Z,12.37
2022-10-23T06:42:26.844Z,12.46
2022-10-23T06:45:01.132Z,12.51
2022-10-23T06:47:51.495Z,12.53
2022-10-23T06:51:07.462Z,12.49
2022-10-23T06:53:42.304Z,12.42
2022-10-23T06:56:29.329Z,12.48
2022-10-23T06:58:59.743Z,12.53
2022-10-23T07:01:30.914Z,12.59
2022-10-23T07:04:00.186Z,12.68
2022-10-23T07:06:28.530Z,12.74
2022-10-23T07:08:56.813Z,12.86
2022-10-23T07:11:49.267Z,12.91
2022-10-23T07:14:19.591Z,12.99
2022-10-23T07:16:52.771Z,13.09
2022-10-23T07:19:22.406Z,13.18
2022-10-23T07:21:59.272Z,13.25
2022-10-23T07:24:45.854Z,13.28
2022-10-23T07:27:41.426Z,13.29
2022-10-23T07:30:31.076Z,13.33
2022-10-23T07:33:02.120Z,13.37
2022-10-23T07:35:38.522Z,13.38
2022-10-23T07:38:13.969Z,13.35
2022-10-23T07:40:47.829Z,13.36
2022-10-23T07:43:20.892Z,13.45
2022-10-23T07:45:58.846Z,13.61
2022-10-23T07:48:40.022Z,13.79
2022-10-23T07:51:13.034Z,13.91
2022-10-23T07:53:47.042Z,14.06
2022-10-23T07:56:40.740Z,14.28
2022-10-23T07:59:24.712Z,14.47
2022-10-23T08:01:58.833Z,14.60
2022-10-23T08:04:33.621Z,14.59
2022-10-23T08:07:17.834Z,14.58
2022-10-23T08:09:52.939Z,14.52
2022-10-23T08:12:21.889Z,14.51
2022-10-23T08:14:51.148Z,14.62
2022-10-23T08:17:21.035Z,14.72
2022-10-23T08:20:08.664Z,14.69
2022-10-23T08:22:43.149Z,14.59
2022-10-23T08:25:11.130Z,14.53
2022-10-23T08:27:39.309Z,14.51
2022-10-23T08:30:08.114Z,14.47
2022-10-23T08:32:44.706Z,14.48
2022-10-23T08:35:16.754Z,14.54
2022-10-23T08:37:46.146Z,14.57
2022-10-23T08:40:23.932Z,14.56
2022-10-23T08:43:51.272Z,14.58
2022-10-23T08:46:32.797Z,14.67
2022-10-23T08:49:44.807Z,14.73
2022-10-23T08:52:37.557Z,14.84
2022-10-23T08:55:22.477Z,14.87
2022-10-23T08:57:56.945Z,14.77
2022-10-23T09:00:28.746Z,14.66
2022-10-23T09:02:57.452Z,14.57
2022-10-23T09:05:35.212Z,14.49
2022-10-23T09:08:22.041Z,14.40
2022-10-23T09:11:12.436Z,14.28
2022-10-23T09:13:49.884Z,14.26
2022-10-23T09:16:42.691Z,14.22
2022-10-23T09:19:28.203Z,14.22
2022-10-23T09:22:01.788Z,14.37
2022-10-23T09:24:34.078Z,14.58
2022-10-23T09:27:17.070Z,14.59
2022-10-23T09:29:50.504Z,14.46
2022-10-23T09:32:37.134Z,14.37
2022-10-23T09:35:06.861Z,14.33
2022-10-23T09:37:47.890Z,14.36
2022-10-23T09:40:24.894Z,14.36
2022-10-23T09:43:05.036Z,14.39
2022-10-23T09:45:39.234Z,14.42
2022-10-23T09:48:14.604Z,14.42
2022-10-23T09:50:52.987Z,14.39
2022-10-23T09:53:28.141Z,14.35
2022-10-23T09:56:27.312Z,14.32
2022-10-23T09:59:06.146Z,14.30
2022-10-23T10:01:38.923Z,14.30
2022-10-23T10:04:47.223Z,14.54
2022-10-23T10:07:26.908Z,14.94
2022-10-23T10:09:55.919Z,15.27
2022-10-23T10:12:53.336Z,15.74
2022-10-23T10:15:47.998Z,16.43
2022-10-23T10:19:04.632Z,16.96
2022-10-23T10:21:47.145Z,17.61
2022-10-23T10:24:32.322Z,18.37
2022-10-23T10:27:38.447Z,18.93
2022-10-23T10:30:23.022Z,19.50
2022-10-23T10:33:16.770Z,20.19
2022-10-23T10:36:01.447Z,21.02
2022-10-23T10:38:45.218Z,21.99
2022-10-23T10:41:32.949Z,22.79
2022-10-23T10:44:04.762Z,23.49
2022-10-23T10:46:56.296Z,24.09
2022-10-23T10:49:40.518Z,24.69
2022-10-23T10:52:49.382Z,25.25
2022-10-23T10:55:28.745Z,25.41
2022-10-23T10:58:23.698Z,25.24
2022-10-23T11:01:03.025Z,24.93
2022-10-23T11:03:42.592Z,25.03
2022-10-23T11:06:18.978Z,25.29
2022-10-23T11:08:57.916Z,25.64
2022-10-23T11:11:49.010Z,25.88
2022-10-23T11:14:19.754Z,26.25
2022-10-23T11:16:59.027Z,26.89
2022-10-23T11:19:42.901Z,27.08
2022-10-23T11:22:43.999Z,27.17
2022-10-23T11:25:50.447Z,26.79
2022-10-23T11:28:34.311Z,26.39
2022-10-23T11:31:32.534Z,25.77
2022-10-23T11:34:49.173Z,25.43
2022-10-23T11:37:21.952Z,25.38
2022-10-23T11:40:12.742Z,24.82
2022-10-23T11:42:51.088Z,24.10
2022-10-23T11:46:24.107Z,23.40
2022-10-23T11:48:47.578Z,22.52
2022-10-23T11:51:37.649Z,22.10
2022-10-23T11:54:35.884Z,21.89
2022-10-23T11:57:36.249Z,21.81
2022-10-23T12:00:44.712Z,21.38
2022-10-23T12:13:55.146Z,21.06
2022-10-23T12:16:58.328Z,22.37
2022-10-23T12:20:25.727Z,24.09
2022-10-23T12:24:00.812Z,25.87
2022-10-23T12:27:25.697Z,26.87
2022-10-23T12:33:58.679Z,27.54
2022-10-23T12:37:42.645Z,27.75
2022-10-23T12:40:50.541Z,28.13
2022-10-23T12:47:11.256Z,28.14
2022-10-23T12:49:56.031Z,27.86
2022-10-23T12:55:40.314Z,27.37
2022-10-23T12:59:33.405Z,27.31
2022-10-23T13:02:44.866Z,27.28
2022-10-23T13:06:22.508Z,26.91
2022-10-23T13:09:24.973Z,26.53
2022-10-23T13:13:19.121Z,26.18
2022-10-23T13:20:53.249Z,25.43
2022-10-23T13:23:58.153Z,25.07
2022-10-23T13:26:58.588Z,25.02
2022-10-23T13:30:44.069Z,25.26
2022-10-23T13:34:10.454Z,25.60
2022-10-23T13:40:33.419Z,25.91
2022-10-23T13:43:30.789Z,25.57
2022-10-23T13:46:30.698Z,24.81
2022-10-23T13:49:41.089Z,24.18
2022-10-23T13:58:48.035Z,25.10
2022-10-23T14:01:29.065Z,25.12
2022-10-23T14:03:57.894Z,25.15
2022-10-23T14:06:26.167Z,25.03
2022-10-23T14:09:08.865Z,24.66
2022-10-23T14:12:28.961Z,24.13
2022-10-23T14:16:30.122Z,23.64
2022-10-23T14:22:17.450Z,23.14
2022-10-23T14:25:39.321Z,23.20
2022-10-23T14:28:41.710Z,23.36
2022-10-23T14:31:18.596Z,23.33
2022-10-23T14:33:58.733Z,23.09
2022-10-23T14:36:43.233Z,22.74
2022-10-23T14:43:04.317Z,21.90
2022-10-23T14:52:48.213Z,20.23
2022-10-23T14:59:34.749Z,19.50
2022-10-23T15:08:45.303Z,18.64
2022-10-23T15:11:14.296Z,18.48
2022-10-23T15:13:50.780Z,18.37
2022-10-23T15:16:44.885Z,18.24
2022-10-23T15:19:24.946Z,18.21
2022-10-23T15:22:37.326Z,18.15
2022-10-23T15:25:06.801Z,18.10
2022-10-23T15:27:37.230Z,18.08
2022-10-23T15:30:43.543Z,18.03
2022-10-23T15:33:16.454Z,17.90
2022-10-23T15:35:48.688Z,17.81
2022-10-23T15:38:17.819Z,17.73
2022-10-23T15:40:46.734Z,17.68
2022-10-23T15:43:17.210Z,17.64
2022-10-23T15:45:47.685Z,17.59
2022-10-23T15:48:16.732Z,17.53
2022-10-23T15:50:58.219Z,17.47
2022-10-23T15:53:27.399Z,17.41
2022-10-23T15:55:58.850Z,17.37
2022-10-23T15:58:27.265Z,17.32
2022-10-23T16:01:10.497Z,17.24
2022-10-23T16:03:51.230Z,17.17
2022-10-23T16:06:46.566Z,17.00
2022-10-23T16:09:17.542Z,17.03
2022-10-23T16:13:03.207Z,16.94
2022-10-23T16:19:39.334Z,16.67
2022-10-23T16:23:05.706Z,16.57
2022-10-23T16:30:30.564Z,16.36
2022-10-23T16:33:45.601Z,16.31
2022-10-23T16:40:34.397Z,16.17
2022-10-23T16:43:34.895Z,16.05
2022-10-23T16:46:17.164Z,15.97
2022-10-23T16:48:45.180Z,15.90
2022-10-23T16:51:17.388Z,15.85
2022-10-23T16:53:50.232Z,15.81
2022-10-23T16:56:25.368Z,15.80
2022-10-23T17:01:31.321Z,15.71
2022-10-23T17:03:59.483Z,15.64
2022-10-23T17:06:31.317Z,15.56
2022-10-23T17:09:10.081Z,15.56
2022-10-23T17:11:44.390Z,15.48
2022-10-23T17:14:16.668Z,15.52
2022-10-23T17:16:46.901Z,15.52
2022-10-23T17:19:33.083Z,15.52
2022-10-23T17:22:10.828Z,15.47
2022-10-23T17:24:41.183Z,15.50
2022-10-23T17:27:10.022Z,15.48
2022-10-23T17:29:49.184Z,15.46
2022-10-23T17:32:18.211Z,15.41
2022-10-23T17:34:47.175Z,15.34
2022-10-23T17:37:17.604Z,15.30
2022-10-23T17:39:46.700Z,15.28
2022-10-23T17:42:20.212Z,15.20
2022-10-23T17:44:49.005Z,15.30
2022-10-23T17:47:23.096Z,15.32
2022-10-23T17:49:52.020Z,15.32
2022-10-23T17:55:04.770Z,15.28
2022-10-23T17:57:41.969Z,15.29
2022-10-23T18:00:10.599Z,15.29
2022-10-23T18:02:45.075Z,15.31
2022-10-23T18:05:15.148Z,15.31
2022-10-23T18:07:43.683Z,15.25
2022-10-23T18:10:19.976Z,15.11
2022-10-23T18:12:49.828Z,15.00
2022-10-23T18:15:20.561Z,14.99
2022-10-23T18:17:49.668Z,14.97
2022-10-23T18:20:17.561Z,14.95
2022-10-23T18:22:52.684Z,14.94
2022-10-23T18:25:26.790Z,14.93
2022-10-23T18:28:00.387Z,14.92
2022-10-23T18:33:16.240Z,14.86
2022-10-23T18:35:45.209Z,14.80
2022-10-23T18:38:22.945Z,14.74
2022-10-23T18:40:57.221Z,14.67
2022-10-23T18:43:42.511Z,14.59
2022-10-23T18:46:13.677Z,14.51
2022-10-23T18:48:44.231Z,14.45
2022-10-23T18:51:22.402Z,14.40
2022-10-23T18:53:51.991Z,14.35
2022-10-23T18:56:24.441Z,14.32
2022-10-23T18:58:55.812Z,14.29
2022-10-23T19:01:30.100Z,14.25
2022-10-23T19:03:59.961Z,14.17
2022-10-23T19:06:29.071Z,14.09
2022-10-23T19:08:59.087Z,14.02
2022-10-23T19:11:37.573Z,13.90
2022-10-23T19:14:10.200Z,13.73
2022-10-23T19:16:43.934Z,13.54
2022-10-23T19:19:22.029Z,13.37
2022-10-23T19:21:52.149Z,13.26
2022-10-23T19:24:23.324Z,13.20
2022-10-23T19:26:52.159Z,13.16
2022-10-23T19:29:23.451Z,13.13
2022-10-23T19:31:54.047Z,13.13
2022-10-23T19:34:25.208Z,13.16
2022-10-23T19:36:59.343Z,13.19
2022-10-23T19:39:30.419Z,13.23
2022-10-23T19:41:58.825Z,13.30
2022-10-23T19:44:30.334Z,13.36
2022-10-23T19:47:07.877Z,13.41
2022-10-23T19:49:37.317Z,13.42
2022-10-23T19:52:05.272Z,13.44
2022-10-23T19:54:34.562Z,13.45
2022-10-23T19:57:10.136Z,13.45
2022-10-23T20:00:16.872Z,13.43
2022-10-23T20:02:49.078Z,13.40
2022-10-23T20:05:20.844Z,13.37
2022-10-23T20:07:55.599Z,13.34
2022-10-23T20:10:26.181Z,13.29
2022-10-23T20:12:57.059Z,13.27
2022-10-23T20:15:44.956Z,13.24
2022-10-23T20:18:20.045Z,13.22
2022-10-23T20:20:53.809Z,13.21
2022-10-23T20:23:26.999Z,13.20
2022-10-23T20:25:55.160Z,13.18
2022-10-23T20:28:23.135Z,13.14
2022-10-23T20:31:10.928Z,13.09
2022-10-23T20:33:46.025Z,13.02
2022-10-23T20:36:26.055Z,12.96
2022-10-23T20:38:59.889Z,12.91
2022-10-23T20:41:32.507Z,12.82
2022-10-23T20:44:09.755Z,12.87
2022-10-23T20:46:53.352Z,12.86
2022-10-23T20:49:39.014Z,12.85
2022-10-23T20:52:11.056Z,12.83
2022-10-23T20:54:38.997Z,12.78
2022-10-23T20:57:07.536Z,12.72
2022-10-23T20:59:39.997Z,12.66
2022-10-23T21:02:09.679Z,12.64
2022-10-23T21:04:38.890Z,12.65
2022-10-23T21:07:19.217Z,12.66
2022-10-23T21:09:49.333Z,12.67
2022-10-23T21:12:19.543Z,12.66
2022-10-23T21:14:48.666Z,12.64
2022-10-23T21:17:24.116Z,12.64
2022-10-23T21:19:53.362Z,12.64
2022-10-23T21:22:23.310Z,12.65
2022-10-23T21:24:57.080Z,12.65
2022-10-23T21:27:26.592Z,12.64
2022-10-23T21:29:55.435Z,12.61
2022-10-23T21:32:24.645Z,12.57
2022-10-23T21:34:55.190Z,12.56
2022-10-23T21:37:25.583Z,12.57
2022-10-23T21:39:54.475Z,12.57
2022-10-23T21:42:25.737Z,12.60
2022-10-23T21:44:54.951Z,12.57
2022-10-23T21:47:29.124Z,12.52
2022-10-23T21:49:58.023Z,12.45
2022-10-23T21:52:26.891Z,12.39
2022-10-23T21:54:55.851Z,12.34
2022-10-23T21:57:24.757Z,12.32
2022-10-23T21:59:54.774Z,12.31
2022-10-23T22:02:23.954Z,12.30
2022-10-23T22:04:51.989Z,12.28
2022-10-23T22:07:22.142Z,12.25
2022-10-23T22:09:51.135Z,12.19
2022-10-23T22:12:22.910Z,12.17
2022-10-23T22:14:50.974Z,12.15
2022-10-23T22:17:19.923Z,12.13
2022-10-23T22:19:48.002Z,12.12
2022-10-23T22:22:17.002Z,12.11
2022-10-23T22:24:47.185Z,12.10
2022-10-23T22:27:21.797Z,12.13
2022-10-23T22:29:51.892Z,12.16
2022-10-23T22:34:53.035Z,12.16
2022-10-23T22:37:21.811Z,12.12
2022-10-23T22:39:52.406Z,12.07
2022-10-23T22:42:21.379Z,12.03
2022-10-23T22:44:53.882Z,12.01
2022-10-23T22:47:22.799Z,12.01
2022-10-23T22:49:52.848Z,12.04
2022-10-23T22:52:27.008Z,12.04
2022-10-23T22:54:56.055Z,12.16
2022-10-23T23:00:01.361Z,12.27
2022-10-23T23:02:32.798Z,12.26
2022-10-23T23:05:07.106Z,12.37
2022-10-23T23:07:35.951Z,12.34
2022-10-23T23:10:05.312Z,12.29
2022-10-23T23:12:37.115Z,12.25
2022-10-23T23:15:11.189Z,12.25
2022-10-23T23:17:45.253Z,12.26
2022-10-23T23:20:15.688Z,12.26
2022-10-23T23:22:43.868Z,12.24
2022-10-23T23:25:12.857Z,12.30
2022-10-23T23:27:41.700Z,12.27
2022-10-23T23:30:11.693Z,12.26
2022-10-23T23:32:41.798Z,12.28
2022-10-23T23:35:10.959Z,12.30
2022-10-23T23:37:40.948Z,12.29
2022-10-23T23:40:11.257Z,12.26
2022-10-23T23:42:40.458Z,12.21
2022-10-23T23:45:14.737Z,12.17
2022-10-23T23:47:46.463Z,12.12
2022-10-23T23:50:16.064Z,12.09
2022-10-23T23:52:45.986Z,12.06
2022-10-23T23:55:16.100Z,12.06
2022-10-23T23:57:48.859Z,12.04
